sensor_id;sensor_type;location;lat;lon;timestamp;P1;durP1;ratioP1;P2;durP2;ratioP2
3959;SDS011;1994;48.640;8.894;2022-09-17T00:01:00;2.90;;;1.30;;
3959;SDS011;1994;48.640;8.894;2022-09-17T00:03:28;1.87;;;1.50;;
3959;SDS011;1994;48.640;8.894;2022-09-17T00:06:02;2.87;;;1.30;;
3959;SDS011;1994;48.640;8.894;2022-09-17T00:08:31;1.27;;;1.17;;
3959;SDS011;1994;48.640;8.894;2022-09-17T00:11:05;1.87;;;1.47;;
3959;SDS011;1994;48.640;8.894;2022-09-17T00:13:45;2.33;;;1.00;;
3959;SDS011;1994;48.640;8.894;2022-09-17T00:16:12;1.27;;;1.17;;
3959;SDS011;1994;48.640;8.894;2022-09-17T00:18:44;1.50;;;1.10;;
3959;SDS011;1994;48.640;8.894;2022-09-17T00:21:15;1.30;;;1.17;;
3959;SDS011;1994;48.640;8.894;2022-09-17T00:23:42;1.20;;;1.10;;
3959;SDS011;1994;48.640;8.894;2022-09-17T00:26:08;1.60;;;1.50;;
3959;SDS011;1994;48.640;8.894;2022-09-17T00:28:34;2.03;;;1.30;;
3959;SDS011;1994;48.640;8.894;2022-09-17T00:31:05;1.63;;;1.33;;
3959;SDS011;1994;48.640;8.894;2022-09-17T00:33:34;1.30;;;1.20;;
3959;SDS011;1994;48.640;8.894;2022-09-17T00:36:01;1.47;;;1.37;;
3959;SDS011;1994;48.640;8.894;2022-09-17T00:38:28;1.40;;;1.30;;
3959;SDS011;1994;48.640;8.894;2022-09-17T00:40:54;1.40;;;1.30;;
3959;SDS011;1994;48.640;8.894;2022-09-17T00:46:50;1.83;;;1.67;;
3959;SDS011;1994;48.640;8.894;2022-09-17T00:49:10;2.33;;;1.50;;
3959;SDS011;1994;48.640;8.894;2022-09-17T00:51:58;4.33;;;1.83;;
3959;SDS011;1994;48.640;8.894;2022-09-17T00:54:32;3.13;;;1.90;;
3959;SDS011;1994;48.640;8.894;2022-09-17T00:57:02;3.17;;;1.60;;
3959;SDS011;1994;48.640;8.894;2022-09-17T00:59:28;1.93;;;1.77;;
3959;SDS011;1994;48.640;8.894;2022-09-17T01:01:54;2.13;;;1.70;;
3959;SDS011;1994;48.640;8.894;2022-09-17T01:04:21;1.80;;;1.67;;
3959;SDS011;1994;48.640;8.894;2022-09-17T01:10:11;1.33;;;1.23;;
3959;SDS011;1994;48.640;8.894;2022-09-17T01:18:42;1.60;;;1.50;;
3959;SDS011;1994;48.640;8.894;2022-09-17T01:32:02;4.60;;;2.00;;
3959;SDS011;1994;48.640;8.894;2022-09-17T01:35:19;11.23;;;1.90;;
3959;SDS011;1994;48.640;8.894;2022-09-17T01:38:27;2.30;;;2.00;;
3959;SDS011;1994;48.640;8.894;2022-09-17T01:41:19;3.10;;;1.57;;
3959;SDS011;1994;48.640;8.894;2022-09-17T01:46:42;1.93;;;1.83;;
3959;SDS011;1994;48.640;8.894;2022-09-17T01:49:15;6.40;;;2.17;;
3959;SDS011;1994;48.640;8.894;2022-09-17T01:51:43;2.47;;;2.20;;
3959;SDS011;1994;48.640;8.894;2022-09-17T01:57:15;2.10;;;1.90;;
3959;SDS011;1994;48.640;8.894;2022-09-17T01:59:58;2.10;;;1.70;;
3959;SDS011;1994;48.640;8.894;2022-09-17T02:02:32;1.60;;;1.50;;
3959;SDS011;1994;48.640;8.894;2022-09-17T02:05:06;2.30;;;1.60;;
3959;SDS011;1994;48.640;8.894;2022-09-17T02:07:52;1.93;;;1.60;;
3959;SDS011;1994;48.640;8.894;2022-09-17T02:10:33;1.90;;;1.73;;
3959;SDS011;1994;48.640;8.894;2022-09-17T02:13:31;1.77;;;1.67;;
3959;SDS011;1994;48.640;8.894;2022-09-17T02:16:19;2.97;;;1.50;;
3959;SDS011;1994;48.640;8.894;2022-09-17T02:18:57;1.87;;;1.70;;
3959;SDS011;1994;48.640;8.894;2022-09-17T02:27:47;1.50;;;1.40;;
3959;SDS011;1994;48.640;8.894;2022-09-17T02:30:39;10.30;;;1.90;;
3959;SDS011;1994;48.640;8.894;2022-09-17T02:33:07;1.80;;;1.70;;
3959;SDS011;1994;48.640;8.894;2022-09-17T02:35:36;6.17;;;1.97;;
3959;SDS011;1994;48.640;8.894;2022-09-17T02:38:03;1.40;;;1.30;;
3959;SDS011;1994;48.640;8.894;2022-09-17T02:40:30;3.17;;;1.50;;
3959;SDS011;1994;48.640;8.894;2022-09-17T02:43:33;2.87;;;2.10;;
3959;SDS011;1994;48.640;8.894;2022-09-17T02:46:52;2.90;;;1.80;;
3959;SDS011;1994;48.640;8.894;2022-09-17T02:57:46;4.30;;;1.70;;
3959;SDS011;1994;48.640;8.894;2022-09-17T03:00:39;2.50;;;1.90;;
3959;SDS011;1994;48.640;8.894;2022-09-17T03:05:59;4.50;;;2.00;;
3959;SDS011;1994;48.640;8.894;2022-09-17T03:08:31;1.77;;;1.53;;
3959;SDS011;1994;48.640;8.894;2022-09-17T03:11:02;1.87;;;1.70;;
3959;SDS011;1994;48.640;8.894;2022-09-17T03:13:29;3.43;;;2.00;;
3959;SDS011;1994;48.640;8.894;2022-09-17T03:15:55;2.90;;;1.97;;
3959;SDS011;1994;48.640;8.894;2022-09-17T03:18:21;3.73;;;1.93;;
3959;SDS011;1994;48.640;8.894;2022-09-17T03:20:47;2.80;;;1.77;;
3959;SDS011;1994;48.640;8.894;2022-09-17T03:23:14;5.13;;;2.10;;
3959;SDS011;1994;48.640;8.894;2022-09-17T03:25:40;1.77;;;1.63;;
3959;SDS011;1994;48.640;8.894;2022-09-17T03:28:06;4.67;;;1.53;;
3959;SDS011;1994;48.640;8.894;2022-09-17T03:30:32;1.87;;;1.77;;
3959;SDS011;1994;48.640;8.894;2022-09-17T03:32:57;2.13;;;1.70;;
3959;SDS011;1994;48.640;8.894;2022-09-17T03:35:23;2.60;;;1.80;;
3959;SDS011;1994;48.640;8.894;2022-09-17T03:37:49;5.63;;;2.20;;
3959;SDS011;1994;48.640;8.894;2022-09-17T03:40:15;5.20;;;2.50;;
3959;SDS011;1994;48.640;8.894;2022-09-17T03:42:41;3.90;;;1.83;;
3959;SDS011;1994;48.640;8.894;2022-09-17T03:45:06;5.83;;;1.80;;
3959;SDS011;1994;48.640;8.894;2022-09-17T03:47:33;4.57;;;2.30;;
3959;SDS011;1994;48.640;8.894;2022-09-17T03:49:59;1.97;;;1.60;;
3959;SDS011;1994;48.640;8.894;2022-09-17T03:52:25;1.80;;;1.70;;
3959;SDS011;1994;48.640;8.894;2022-09-17T03:54:50;1.80;;;1.40;;
3959;SDS011;1994;48.640;8.894;2022-09-17T03:57:16;4.80;;;1.73;;
3959;SDS011;1994;48.640;8.894;2022-09-17T03:59:42;3.37;;;1.80;;
3959;SDS011;1994;48.640;8.894;2022-09-17T04:02:08;5.77;;;1.97;;
3959;SDS011;1994;48.640;8.894;2022-09-17T04:04:33;1.60;;;1.50;;
3959;SDS011;1994;48.640;8.894;2022-09-17T04:07:00;4.30;;;1.77;;
3959;SDS011;1994;48.640;8.894;2022-09-17T04:09:26;7.13;;;2.00;;
3959;SDS011;1994;48.640;8.894;2022-09-17T04:11:52;6.63;;;2.10;;
3959;SDS011;1994;48.640;8.894;2022-09-17T04:14:17;7.83;;;2.00;;
3959;SDS011;1994;48.640;8.894;2022-09-17T04:16:43;3.90;;;1.90;;
3959;SDS011;1994;48.640;8.894;2022-09-17T04:19:09;3.37;;;1.73;;
3959;SDS011;1994;48.640;8.894;2022-09-17T04:21:35;3.43;;;1.87;;
3959;SDS011;1994;48.640;8.894;2022-09-17T04:24:00;11.67;;;3.70;;
3959;SDS011;1994;48.640;8.894;2022-09-17T04:26:26;1.60;;;1.50;;
3959;SDS011;1994;48.640;8.894;2022-09-17T04:28:52;3.00;;;1.90;;
3959;SDS011;1994;48.640;8.894;2022-09-17T04:31:18;4.03;;;2.00;;
3959;SDS011;1994;48.640;8.894;2022-09-17T04:33:43;7.80;;;1.90;;
3959;SDS011;1994;48.640;8.894;2022-09-17T04:36:09;8.43;;;2.00;;
3959;SDS011;1994;48.640;8.894;2022-09-17T04:38:35;4.93;;;1.93;;
3959;SDS011;1994;48.640;8.894;2022-09-17T04:41:01;3.03;;;2.37;;
3959;SDS011;1994;48.640;8.894;2022-09-17T04:43:26;1.90;;;1.70;;
3959;SDS011;1994;48.640;8.894;2022-09-17T04:45:52;7.73;;;2.20;;
3959;SDS011;1994;48.640;8.894;2022-09-17T04:48:18;3.57;;;2.47;;
3959;SDS011;1994;48.640;8.894;2022-09-17T04:50:44;10.53;;;2.10;;
3959;SDS011;1994;48.640;8.894;2022-09-17T04:53:10;6.10;;;2.20;;
3959;SDS011;1994;48.640;8.894;2022-09-17T04:55:36;12.10;;;2.40;;
3959;SDS011;1994;48.640;8.894;2022-09-17T04:58:02;4.40;;;1.87;;
3959;SDS011;1994;48.640;8.894;2022-09-17T05:00:28;7.80;;;1.97;;
3959;SDS011;1994;48.640;8.894;2022-09-17T05:02:54;4.30;;;2.10;;
3959;SDS011;1994;48.640;8.894;2022-09-17T05:05:20;7.03;;;2.37;;
3959;SDS011;1994;48.640;8.894;2022-09-17T05:07:47;8.93;;;2.20;;
3959;SDS011;1994;48.640;8.894;2022-09-17T05:10:14;3.60;;;2.20;;
3959;SDS011;1994;48.640;8.894;2022-09-17T05:12:46;6.87;;;2.20;;
3959;SDS011;1994;48.640;8.894;2022-09-17T05:15:13;4.13;;;2.40;;
3959;SDS011;1994;48.640;8.894;2022-09-17T05:17:39;4.63;;;2.17;;
3959;SDS011;1994;48.640;8.894;2022-09-17T05:20:05;3.90;;;2.20;;
3959;SDS011;1994;48.640;8.894;2022-09-17T05:22:31;3.53;;;1.90;;
3959;SDS011;1994;48.640;8.894;2022-09-17T05:24:57;2.40;;;1.83;;
3959;SDS011;1994;48.640;8.894;2022-09-17T05:27:23;4.50;;;2.53;;
3959;SDS011;1994;48.640;8.894;2022-09-17T05:29:48;3.03;;;2.60;;
3959;SDS011;1994;48.640;8.894;2022-09-17T05:32:14;7.20;;;2.80;;
3959;SDS011;1994;48.640;8.894;2022-09-17T05:34:40;2.57;;;2.17;;
3959;SDS011;1994;48.640;8.894;2022-09-17T05:37:08;6.87;;;2.23;;
3959;SDS011;1994;48.640;8.894;2022-09-17T05:39:35;2.50;;;2.30;;
3959;SDS011;1994;48.640;8.894;2022-09-17T05:42:01;7.53;;;2.80;;
3959;SDS011;1994;48.640;8.894;2022-09-17T05:44:26;6.77;;;2.40;;
3959;SDS011;1994;48.640;8.894;2022-09-17T05:46:53;16.43;;;2.73;;
3959;SDS011;1994;48.640;8.894;2022-09-17T05:49:18;3.23;;;2.30;;
3959;SDS011;1994;48.640;8.894;2022-09-17T05:51:44;8.50;;;3.03;;
3959;SDS011;1994;48.640;8.894;2022-09-17T05:54:10;9.23;;;2.93;;
3959;SDS011;1994;48.640;8.894;2022-09-17T05:56:36;3.47;;;2.00;;
3959;SDS011;1994;48.640;8.894;2022-09-17T05:59:01;8.90;;;3.00;;
3959;SDS011;1994;48.640;8.894;2022-09-17T06:01:27;3.87;;;2.40;;
3959;SDS011;1994;48.640;8.894;2022-09-17T06:03:53;2.43;;;2.23;;
3959;SDS011;1994;48.640;8.894;2022-09-17T06:06:19;10.50;;;3.03;;
3959;SDS011;1994;48.640;8.894;2022-09-17T06:08:45;6.93;;;2.60;;
3959;SDS011;1994;48.640;8.894;2022-09-17T06:11:11;4.30;;;2.60;;
3959;SDS011;1994;48.640;8.894;2022-09-17T06:13:37;3.07;;;2.00;;
3959;SDS011;1994;48.640;8.894;2022-09-17T06:16:03;7.63;;;2.53;;
3959;SDS011;1994;48.640;8.894;2022-09-17T06:18:29;8.33;;;3.10;;
3959;SDS011;1994;48.640;8.894;2022-09-17T06:20:56;4.73;;;2.90;;
3959;SDS011;1994;48.640;8.894;2022-09-17T06:23:30;6.10;;;2.50;;
3959;SDS011;1994;48.640;8.894;2022-09-17T06:25:59;2.77;;;2.50;;
3959;SDS011;1994;48.640;8.894;2022-09-17T06:28:26;4.23;;;2.50;;
3959;SDS011;1994;48.640;8.894;2022-09-17T06:30:53;4.90;;;2.43;;
3959;SDS011;1994;48.640;8.894;2022-09-17T06:33:23;2.63;;;2.17;;
3959;SDS011;1994;48.640;8.894;2022-09-17T06:36:00;4.97;;;2.80;;
3959;SDS011;1994;48.640;8.894;2022-09-17T06:38:32;5.03;;;2.27;;
3959;SDS011;1994;48.640;8.894;2022-09-17T06:41:00;8.17;;;2.33;;
3959;SDS011;1994;48.640;8.894;2022-09-17T06:43:26;2.50;;;2.30;;
3959;SDS011;1994;48.640;8.894;2022-09-17T06:48:23;4.80;;;2.00;;
3959;SDS011;1994;48.640;8.894;2022-09-17T06:50:52;3.83;;;2.00;;
3959;SDS011;1994;48.640;8.894;2022-09-17T06:53:19;12.87;;;3.73;;
3959;SDS011;1994;48.640;8.894;2022-09-17T06:55:46;2.33;;;2.17;;
3959;SDS011;1994;48.640;8.894;2022-09-17T06:58:12;6.77;;;2.90;;
3959;SDS011;1994;48.640;8.894;2022-09-17T07:00:38;6.90;;;2.50;;
3959;SDS011;1994;48.640;8.894;2022-09-17T07:03:04;4.77;;;2.30;;
3959;SDS011;1994;48.640;8.894;2022-09-17T07:05:30;6.50;;;2.40;;
3959;SDS011;1994;48.640;8.894;2022-09-17T07:07:59;4.90;;;2.97;;
3959;SDS011;1994;48.640;8.894;2022-09-17T07:10:30;2.50;;;2.10;;
3959;SDS011;1994;48.640;8.894;2022-09-17T07:12:56;4.70;;;2.90;;
3959;SDS011;1994;48.640;8.894;2022-09-17T07:15:23;6.23;;;2.70;;
3959;SDS011;1994;48.640;8.894;2022-09-17T07:17:49;2.27;;;2.00;;
3959;SDS011;1994;48.640;8.894;2022-09-17T07:20:15;3.00;;;2.23;;
3959;SDS011;1994;48.640;8.894;2022-09-17T07:22:41;4.80;;;2.63;;
3959;SDS011;1994;48.640;8.894;2022-09-17T07:25:07;3.60;;;2.37;;
3959;SDS011;1994;48.640;8.894;2022-09-17T07:27:34;6.87;;;2.17;;
3959;SDS011;1994;48.640;8.894;2022-09-17T07:29:59;4.40;;;2.43;;
3959;SDS011;1994;48.640;8.894;2022-09-17T07:32:27;10.70;;;3.10;;
3959;SDS011;1994;48.640;8.894;2022-09-17T07:34:55;6.13;;;2.47;;
3959;SDS011;1994;48.640;8.894;2022-09-17T07:37:21;5.67;;;3.37;;
3959;SDS011;1994;48.640;8.894;2022-09-17T07:39:47;3.93;;;3.23;;
3959;SDS011;1994;48.640;8.894;2022-09-17T07:42:13;10.40;;;5.20;;
3959;SDS011;1994;48.640;8.894;2022-09-17T07:44:38;29.63;;;6.70;;
3959;SDS011;1994;48.640;8.894;2022-09-17T07:47:04;3.73;;;3.30;;
3959;SDS011;1994;48.640;8.894;2022-09-17T07:49:30;2.67;;;2.47;;
3959;SDS011;1994;48.640;8.894;2022-09-17T07:51:56;2.50;;;1.80;;
3959;SDS011;1994;48.640;8.894;2022-09-17T07:54:23;5.83;;;2.77;;
3959;SDS011;1994;48.640;8.894;2022-09-17T07:56:49;5.37;;;2.40;;
3959;SDS011;1994;48.640;8.894;2022-09-17T07:59:15;1.63;;;1.53;;
3959;SDS011;1994;48.640;8.894;2022-09-17T08:01:41;3.27;;;2.10;;
3959;SDS011;1994;48.640;8.894;2022-09-17T08:04:07;2.07;;;1.73;;
3959;SDS011;1994;48.640;8.894;2022-09-17T08:06:35;2.13;;;1.90;;
3959;SDS011;1994;48.640;8.894;2022-09-17T08:09:02;3.30;;;2.27;;
3959;SDS011;1994;48.640;8.894;2022-09-17T08:11:29;3.80;;;2.50;;
3959;SDS011;1994;48.640;8.894;2022-09-17T08:13:55;2.50;;;1.93;;
3959;SDS011;1994;48.640;8.894;2022-09-17T08:16:22;3.00;;;2.07;;
3959;SDS011;1994;48.640;8.894;2022-09-17T08:18:52;4.03;;;1.87;;
3959;SDS011;1994;48.640;8.894;2022-09-17T08:21:20;3.27;;;1.67;;
3959;SDS011;1994;48.640;8.894;2022-09-17T08:23:46;4.47;;;1.70;;
3959;SDS011;1994;48.640;8.894;2022-09-17T08:26:19;6.17;;;2.50;;
3959;SDS011;1994;48.640;8.894;2022-09-17T08:28:53;2.63;;;1.77;;
3959;SDS011;1994;48.640;8.894;2022-09-17T08:31:21;9.63;;;1.80;;
3959;SDS011;1994;48.640;8.894;2022-09-17T08:33:49;5.80;;;1.97;;
3959;SDS011;1994;48.640;8.894;2022-09-17T08:36:16;2.77;;;1.63;;
3959;SDS011;1994;48.640;8.894;2022-09-17T08:38:43;2.37;;;1.63;;
3959;SDS011;1994;48.640;8.894;2022-09-17T08:46:46;15.10;;;1.90;;
3959;SDS011;1994;48.640;8.894;2022-09-17T08:49:30;5.70;;;2.73;;
3959;SDS011;1994;48.640;8.894;2022-09-17T08:52:18;2.93;;;2.33;;
3959;SDS011;1994;48.640;8.894;2022-09-17T09:04:03;6.47;;;2.33;;
3959;SDS011;1994;48.640;8.894;2022-09-17T09:06:53;6.20;;;2.23;;
3959;SDS011;1994;48.640;8.894;2022-09-17T09:09:27;3.37;;;2.33;;
3959;SDS011;1994;48.640;8.894;2022-09-17T09:12:06;6.23;;;2.60;;
3959;SDS011;1994;48.640;8.894;2022-09-17T09:14:58;7.00;;;3.60;;
3959;SDS011;1994;48.640;8.894;2022-09-17T09:17:37;5.03;;;4.63;;
3959;SDS011;1994;48.640;8.894;2022-09-17T09:20:15;4.70;;;2.90;;
3959;SDS011;1994;48.640;8.894;2022-09-17T09:23:06;12.33;;;3.60;;
3959;SDS011;1994;48.640;8.894;2022-09-17T09:25:49;7.37;;;3.03;;
3959;SDS011;1994;48.640;8.894;2022-09-17T09:34:05;8.33;;;2.80;;
3959;SDS011;1994;48.640;8.894;2022-09-17T09:36:31;8.63;;;3.10;;
3959;SDS011;1994;48.640;8.894;2022-09-17T09:39:19;4.53;;;2.63;;
3959;SDS011;1994;48.640;8.894;2022-09-17T09:42:09;4.33;;;2.50;;
3959;SDS011;1994;48.640;8.894;2022-09-17T09:44:54;3.73;;;2.30;;
3959;SDS011;1994;48.640;8.894;2022-09-17T09:47:35;3.10;;;2.20;;
3959;SDS011;1994;48.640;8.894;2022-09-17T09:55:50;9.40;;;3.00;;
3959;SDS011;1994;48.640;8.894;2022-09-17T09:58:35;2.43;;;2.00;;
3959;SDS011;1994;48.640;8.894;2022-09-17T10:01:10;3.87;;;2.37;;
3959;SDS011;1994;48.640;8.894;2022-09-17T10:03:44;3.80;;;2.40;;
3959;SDS011;1994;48.640;8.894;2022-09-17T10:06:12;6.73;;;2.20;;
3959;SDS011;1994;48.640;8.894;2022-09-17T10:08:40;5.40;;;2.20;;
3959;SDS011;1994;48.640;8.894;2022-09-17T10:13:45;3.83;;;1.80;;
3959;SDS011;1994;48.640;8.894;2022-09-17T10:21:33;5.47;;;2.13;;
3959;SDS011;1994;48.640;8.894;2022-09-17T10:24:01;3.83;;;1.30;;
3959;SDS011;1994;48.640;8.894;2022-09-17T10:26:32;4.33;;;1.70;;
3959;SDS011;1994;48.640;8.894;2022-09-17T10:29:01;2.90;;;1.93;;
3959;SDS011;1994;48.640;8.894;2022-09-17T10:31:47;3.70;;;2.20;;
3959;SDS011;1994;48.640;8.894;2022-09-17T10:34:21;3.00;;;1.67;;
3959;SDS011;1994;48.640;8.894;2022-09-17T10:36:57;2.80;;;1.80;;
3959;SDS011;1994;48.640;8.894;2022-09-17T10:42:05;5.80;;;2.23;;
3959;SDS011;1994;48.640;8.894;2022-09-17T10:44:42;3.23;;;1.43;;
3959;SDS011;1994;48.640;8.894;2022-09-17T10:47:28;2.60;;;2.00;;
3959;SDS011;1994;48.640;8.894;2022-09-17T10:50:02;8.50;;;2.57;;
3959;SDS011;1994;48.640;8.894;2022-09-17T10:52:47;3.10;;;2.00;;
3959;SDS011;1994;48.640;8.894;2022-09-17T10:58:20;1.87;;;1.50;;
3959;SDS011;1994;48.640;8.894;2022-09-17T11:09:41;1.87;;;1.57;;
3959;SDS011;1994;48.640;8.894;2022-09-17T11:23:46;2.30;;;1.70;;
3959;SDS011;1994;48.640;8.894;2022-09-17T11:26:51;2.20;;;1.43;;
3959;SDS011;1994;48.640;8.894;2022-09-17T11:32:54;4.70;;;1.37;;
3959;SDS011;1994;48.640;8.894;2022-09-17T11:35:46;4.87;;;1.57;;
3959;SDS011;1994;48.640;8.894;2022-09-17T11:38:21;1.60;;;1.50;;
3959;SDS011;1994;48.640;8.894;2022-09-17T11:40:58;2.23;;;1.33;;
3959;SDS011;1994;48.640;8.894;2022-09-17T11:43:41;1.43;;;1.10;;
3959;SDS011;1994;48.640;8.894;2022-09-17T11:46:17;3.37;;;1.90;;
3959;SDS011;1994;48.640;8.894;2022-09-17T11:49:54;1.40;;;0.97;;
3959;SDS011;1994;48.640;8.894;2022-09-17T11:52:13;3.63;;;2.00;;
3959;SDS011;1994;48.640;8.894;2022-09-17T11:57:42;3.13;;;1.57;;
3959;SDS011;1994;48.640;8.894;2022-09-17T12:00:13;1.70;;;1.60;;
3959;SDS011;1994;48.640;8.894;2022-09-17T12:14:08;1.20;;;1.10;;
3959;SDS011;1994;48.640;8.894;2022-09-17T12:17:00;1.87;;;1.60;;
3959;SDS011;1994;48.640;8.894;2022-09-17T12:19:35;4.20;;;1.40;;
3959;SDS011;1994;48.640;8.894;2022-09-17T12:22:11;3.90;;;2.07;;
3959;SDS011;1994;48.640;8.894;2022-09-17T12:24:50;2.23;;;1.30;;
3959;SDS011;1994;48.640;8.894;2022-09-17T12:30:14;2.00;;;1.80;;
3959;SDS011;1994;48.640;8.894;2022-09-17T12:32:55;1.80;;;1.50;;
3959;SDS011;1994;48.640;8.894;2022-09-17T12:42:11;4.53;;;2.53;;
3959;SDS011;1994;48.640;8.894;2022-09-17T12:57:24;4.90;;;1.73;;
3959;SDS011;1994;48.640;8.894;2022-09-17T13:00:13;3.10;;;1.60;;
3959;SDS011;1994;48.640;8.894;2022-09-17T13:10:51;3.30;;;1.30;;
3959;SDS011;1994;48.640;8.894;2022-09-17T13:23:33;2.00;;;1.23;;
3959;SDS011;1994;48.640;8.894;2022-09-17T13:26:08;4.80;;;1.30;;
3959;SDS011;1994;48.640;8.894;2022-09-17T13:28:40;1.10;;;0.87;;
3959;SDS011;1994;48.640;8.894;2022-09-17T13:31:09;1.03;;;0.93;;
3959;SDS011;1994;48.640;8.894;2022-09-17T13:39:10;1.60;;;1.13;;
3959;SDS011;1994;48.640;8.894;2022-09-17T13:42:25;1.20;;;1.00;;
3959;SDS011;1994;48.640;8.894;2022-09-17T13:45:04;9.60;;;2.50;;
3959;SDS011;1994;48.640;8.894;2022-09-17T13:47:36;4.00;;;1.10;;
3959;SDS011;1994;48.640;8.894;2022-09-17T13:50:29;1.47;;;1.30;;
3959;SDS011;1994;48.640;8.894;2022-09-17T13:55:42;1.33;;;1.23;;
3959;SDS011;1994;48.640;8.894;2022-09-17T13:58:29;2.23;;;1.53;;
3959;SDS011;1994;48.640;8.894;2022-09-17T14:01:04;1.87;;;1.30;;
3959;SDS011;1994;48.640;8.894;2022-09-17T14:24:50;2.70;;;1.53;;
3959;SDS011;1994;48.640;8.894;2022-09-17T14:32:51;2.30;;;1.60;;
3959;SDS011;1994;48.640;8.894;2022-09-17T14:38:02;4.50;;;1.70;;
3959;SDS011;1994;48.640;8.894;2022-09-17T14:40:44;4.23;;;1.80;;
3959;SDS011;1994;48.640;8.894;2022-09-17T14:43:56;3.03;;;1.83;;
3959;SDS011;1994;48.640;8.894;2022-09-17T14:46:41;6.40;;;1.77;;
3959;SDS011;1994;48.640;8.894;2022-09-17T14:51:54;5.40;;;1.53;;
3959;SDS011;1994;48.640;8.894;2022-09-17T14:54:23;2.30;;;1.50;;
3959;SDS011;1994;48.640;8.894;2022-09-17T14:56:56;3.87;;;1.33;;
3959;SDS011;1994;48.640;8.894;2022-09-17T14:59:32;2.60;;;1.70;;
3959;SDS011;1994;48.640;8.894;2022-09-17T15:02:27;1.63;;;1.50;;
3959;SDS011;1994;48.640;8.894;2022-09-17T15:04:57;2.60;;;1.40;;
3959;SDS011;1994;48.640;8.894;2022-09-17T15:07:24;2.97;;;1.70;;
3959;SDS011;1994;48.640;8.894;2022-09-17T15:09:52;2.50;;;1.40;;
3959;SDS011;1994;48.640;8.894;2022-09-17T15:12:21;6.33;;;1.83;;
3959;SDS011;1994;48.640;8.894;2022-09-17T15:14:54;3.33;;;1.77;;
3959;SDS011;1994;48.640;8.894;2022-09-17T15:17:21;2.30;;;1.57;;
3959;SDS011;1994;48.640;8.894;2022-09-17T15:19:49;1.30;;;1.20;;
3959;SDS011;1994;48.640;8.894;2022-09-17T15:22:35;3.70;;;1.80;;
3959;SDS011;1994;48.640;8.894;2022-09-17T15:25:13;3.40;;;1.47;;
3959;SDS011;1994;48.640;8.894;2022-09-17T15:27:49;3.77;;;1.33;;
3959;SDS011;1994;48.640;8.894;2022-09-17T15:30:21;2.60;;;1.30;;
3959;SDS011;1994;48.640;8.894;2022-09-17T15:32:53;1.37;;;1.27;;
3959;SDS011;1994;48.640;8.894;2022-09-17T15:37:58;9.97;;;2.23;;
3959;SDS011;1994;48.640;8.894;2022-09-17T15:40:32;3.20;;;1.37;;
3959;SDS011;1994;48.640;8.894;2022-09-17T15:45:39;2.43;;;1.47;;
3959;SDS011;1994;48.640;8.894;2022-09-17T15:51:04;2.60;;;1.70;;
3959;SDS011;1994;48.640;8.894;2022-09-17T15:53:55;3.33;;;2.07;;
3959;SDS011;1994;48.640;8.894;2022-09-17T15:56:29;1.90;;;1.43;;
3959;SDS011;1994;48.640;8.894;2022-09-17T15:59:15;3.93;;;1.90;;
3959;SDS011;1994;48.640;8.894;2022-09-17T16:01:50;10.43;;;3.90;;
3959;SDS011;1994;48.640;8.894;2022-09-17T16:04:31;4.50;;;2.80;;
3959;SDS011;1994;48.640;8.894;2022-09-17T16:07:00;9.43;;;4.43;;
3959;SDS011;1994;48.640;8.894;2022-09-17T16:09:37;7.10;;;2.10;;
3959;SDS011;1994;48.640;8.894;2022-09-17T16:12:14;2.37;;;1.70;;
3959;SDS011;1994;48.640;8.894;2022-09-17T16:14:47;2.50;;;1.10;;
3959;SDS011;1994;48.640;8.894;2022-09-17T16:20:04;3.00;;;1.23;;
3959;SDS011;1994;48.640;8.894;2022-09-17T16:22:46;4.30;;;1.13;;
3959;SDS011;1994;48.640;8.894;2022-09-17T16:25:12;1.30;;;1.20;;
3959;SDS011;1994;48.640;8.894;2022-09-17T16:30:45;3.50;;;1.43;;
3959;SDS011;1994;48.640;8.894;2022-09-17T16:33:15;9.00;;;1.13;;
3959;SDS011;1994;48.640;8.894;2022-09-17T16:35:42;1.63;;;1.53;;
3959;SDS011;1994;48.640;8.894;2022-09-17T16:38:10;2.50;;;1.53;;
3959;SDS011;1994;48.640;8.894;2022-09-17T16:40:40;2.30;;;1.40;;
3959;SDS011;1994;48.640;8.894;2022-09-17T16:43:08;2.90;;;1.17;;
3959;SDS011;1994;48.640;8.894;2022-09-17T16:45:34;2.23;;;1.13;;
3959;SDS011;1994;48.640;8.894;2022-09-17T16:48:00;5.43;;;1.37;;
3959;SDS011;1994;48.640;8.894;2022-09-17T16:50:27;1.53;;;1.20;;
3959;SDS011;1994;48.640;8.894;2022-09-17T16:52:53;4.70;;;1.67;;
3959;SDS011;1994;48.640;8.894;2022-09-17T16:55:19;4.10;;;1.30;;
3959;SDS011;1994;48.640;8.894;2022-09-17T16:57:45;2.50;;;1.10;;
3959;SDS011;1994;48.640;8.894;2022-09-17T17:00:12;1.40;;;1.30;;
3959;SDS011;1994;48.640;8.894;2022-09-17T17:02:43;2.80;;;1.13;;
3959;SDS011;1994;48.640;8.894;2022-09-17T17:05:19;2.13;;;1.47;;
3959;SDS011;1994;48.640;8.894;2022-09-17T17:07:46;3.27;;;1.60;;
3959;SDS011;1994;48.640;8.894;2022-09-17T17:10:12;1.87;;;1.30;;
3959;SDS011;1994;48.640;8.894;2022-09-17T17:12:38;6.10;;;3.70;;
3959;SDS011;1994;48.640;8.894;2022-09-17T17:15:04;3.00;;;1.37;;
3959;SDS011;1994;48.640;8.894;2022-09-17T17:17:31;5.00;;;2.20;;
3959;SDS011;1994;48.640;8.894;2022-09-17T17:19:59;2.33;;;1.20;;
3959;SDS011;1994;48.640;8.894;2022-09-17T17:22:33;5.83;;;1.47;;
3959;SDS011;1994;48.640;8.894;2022-09-17T17:25:00;2.90;;;2.27;;
3959;SDS011;1994;48.640;8.894;2022-09-17T17:27:29;3.70;;;1.87;;
3959;SDS011;1994;48.640;8.894;2022-09-17T17:29:55;5.90;;;2.00;;
3959;SDS011;1994;48.640;8.894;2022-09-17T17:32:21;9.10;;;4.47;;
3959;SDS011;1994;48.640;8.894;2022-09-17T17:34:47;14.83;;;5.77;;
3959;SDS011;1994;48.640;8.894;2022-09-17T17:37:14;8.93;;;2.10;;
3959;SDS011;1994;48.640;8.894;2022-09-17T17:39:41;2.97;;;1.83;;
3959;SDS011;1994;48.640;8.894;2022-09-17T17:42:07;2.57;;;1.70;;
3959;SDS011;1994;48.640;8.894;2022-09-17T17:44:33;2.40;;;1.37;;
3959;SDS011;1994;48.640;8.894;2022-09-17T17:46:58;2.60;;;1.50;;
3959;SDS011;1994;48.640;8.894;2022-09-17T17:49:24;4.60;;;1.40;;
3959;SDS011;1994;48.640;8.894;2022-09-17T17:51:50;2.50;;;1.17;;
3959;SDS011;1994;48.640;8.894;2022-09-17T17:54:17;3.40;;;1.00;;
3959;SDS011;1994;48.640;8.894;2022-09-17T17:56:45;2.00;;;1.37;;
3959;SDS011;1994;48.640;8.894;2022-09-17T17:59:11;1.90;;;1.30;;
3959;SDS011;1994;48.640;8.894;2022-09-17T18:01:36;6.83;;;1.10;;
3959;SDS011;1994;48.640;8.894;2022-09-17T18:04:03;1.57;;;1.03;;
3959;SDS011;1994;48.640;8.894;2022-09-17T18:06:31;1.00;;;0.87;;
3959;SDS011;1994;48.640;8.894;2022-09-17T18:08:58;3.27;;;1.30;;
3959;SDS011;1994;48.640;8.894;2022-09-17T18:11:25;1.40;;;0.97;;
3959;SDS011;1994;48.640;8.894;2022-09-17T18:13:53;1.80;;;1.03;;
3959;SDS011;1994;48.640;8.894;2022-09-17T18:16:21;3.83;;;1.40;;
3959;SDS011;1994;48.640;8.894;2022-09-17T18:18:47;1.50;;;1.40;;
3959;SDS011;1994;48.640;8.894;2022-09-17T18:21:17;1.73;;;1.00;;
3959;SDS011;1994;48.640;8.894;2022-09-17T18:23:47;2.87;;;1.57;;
3959;SDS011;1994;48.640;8.894;2022-09-17T18:26:14;1.10;;;1.00;;
3959;SDS011;1994;48.640;8.894;2022-09-17T18:28:46;1.20;;;1.00;;
3959;SDS011;1994;48.640;8.894;2022-09-17T18:31:17;3.20;;;1.40;;
3959;SDS011;1994;48.640;8.894;2022-09-17T18:33:59;2.23;;;1.27;;
3959;SDS011;1994;48.640;8.894;2022-09-17T18:36:31;3.27;;;1.03;;
3959;SDS011;1994;48.640;8.894;2022-09-17T18:38:59;2.43;;;1.17;;
3959;SDS011;1994;48.640;8.894;2022-09-17T18:41:32;2.60;;;1.13;;
3959;SDS011;1994;48.640;8.894;2022-09-17T18:44:05;1.83;;;1.43;;
3959;SDS011;1994;48.640;8.894;2022-09-17T18:46:32;1.00;;;0.90;;
3959;SDS011;1994;48.640;8.894;2022-09-17T18:48:59;1.87;;;1.10;;
3959;SDS011;1994;48.640;8.894;2022-09-17T18:51:25;1.20;;;1.10;;
3959;SDS011;1994;48.640;8.894;2022-09-17T18:53:53;3.33;;;1.00;;
3959;SDS011;1994;48.640;8.894;2022-09-17T18:56:20;1.33;;;1.00;;
3959;SDS011;1994;48.640;8.894;2022-09-17T18:58:49;2.53;;;1.10;;
3959;SDS011;1994;48.640;8.894;2022-09-17T19:01:17;1.67;;;1.40;;
3959;SDS011;1994;48.640;8.894;2022-09-17T19:03:47;3.00;;;1.00;;
3959;SDS011;1994;48.640;8.894;2022-09-17T19:06:14;2.27;;;1.10;;
3959;SDS011;1994;48.640;8.894;2022-09-17T19:08:40;1.53;;;1.00;;
3959;SDS011;1994;48.640;8.894;2022-09-17T19:11:07;1.47;;;1.10;;
3959;SDS011;1994;48.640;8.894;2022-09-17T19:13:35;1.03;;;0.93;;
3959;SDS011;1994;48.640;8.894;2022-09-17T19:16:14;1.83;;;1.20;;
3959;SDS011;1994;48.640;8.894;2022-09-17T19:18:40;0.97;;;0.90;;
3959;SDS011;1994;48.640;8.894;2022-09-17T19:21:14;1.00;;;0.90;;
3959;SDS011;1994;48.640;8.894;2022-09-17T19:23:47;2.17;;;1.13;;